createdAt,value
2022-10-22T00:01:14.010Z,31.50
2022-10-22T00:03:42.279Z,35.20
2022-10-22T00:06:10.486Z,36.10
2022-10-22T00:08:38.647Z,28.50
2022-10-22T00:11:15.331Z,33.10
2022-10-22T00:13:44.283Z,34.00
2022-10-22T00:16:13.078Z,29.50
2022-10-22T00:18:41.621Z,35.10
2022-10-22T00:21:10.128Z,32.10
2022-10-22T00:23:42.165Z,35.40
2022-10-22T00:26:11.129Z,33.50
2022-10-22T00:28:39.380Z,34.60
2022-10-22T00:31:08.177Z,34.30
2022-10-22T00:33:36.508Z,31.70
2022-10-22T00:36:04.900Z,32.80
2022-10-22T00:38:34.023Z,36.80
2022-10-22T00:43:53.348Z,38.70
2022-10-22T00:46:21.386Z,36.50
2022-10-22T00:48:50.355Z,36.20
2022-10-22T00:51:21.300Z,34.90
2022-10-22T00:53:53.817Z,36.40
2022-10-22T00:56:26.447Z,35.00
2022-10-22T00:58:58.599Z,36.20
2022-10-22T01:01:30.911Z,31.40
2022-10-22T01:04:00.280Z,31.30
2022-10-22T01:06:34.090Z,32.90
2022-10-22T01:09:17.353Z,35.00
2022-10-22T01:11:54.705Z,36.10
2022-10-22T01:14:35.197Z,33.50
2022-10-22T01:17:14.177Z,30.50
2022-10-22T01:20:14.909Z,28.70
2022-10-22T01:23:01.556Z,36.10
2022-10-22T01:25:40.080Z,28.80
2022-10-22T01:28:29.060Z,27.80
2022-10-22T01:31:00.887Z,35.70
2022-10-22T01:33:35.910Z,33.20
2022-10-22T01:36:05.158Z,31.30
2022-10-22T01:38:34.565Z,33.30
2022-10-22T01:41:04.605Z,32.30
2022-10-22T01:43:33.667Z,33.60
2022-10-22T01:46:05.768Z,37.10
2022-10-22T01:48:56.122Z,32.70
2022-10-22T01:51:40.018Z,33.60
2022-10-22T01:54:36.217Z,32.50
2022-10-22T02:00:15.029Z,31.20
2022-10-22T02:03:04.597Z,31.60
2022-10-22T02:05:38.849Z,28.30
2022-10-22T02:08:11.337Z,29.10
2022-10-22T02:10:43.425Z,32.90
2022-10-22T02:13:32.440Z,26.90
2022-10-22T02:16:02.362Z,32.90
2022-10-22T02:18:38.836Z,27.70
2022-10-22T02:23:37.393Z,28.30
2022-10-22T02:26:31.837Z,31.20
2022-10-22T02:29:09.511Z,27.50
2022-10-22T02:31:42.236Z,28.20
2022-10-22T02:34:15.097Z,32.50
2022-10-22T02:36:48.224Z,24.80
2022-10-22T02:39:21.146Z,34.00
2022-10-22T02:41:49.631Z,28.00
2022-10-22T02:44:21.434Z,27.00
2022-10-22T02:46:50.523Z,30.30
2022-10-22T02:49:18.947Z,29.10
2022-10-22T02:51:47.544Z,28.40
2022-10-22T02:54:15.809Z,28.90
2022-10-22T02:56:43.913Z,29.00
2022-10-22T02:59:12.236Z,31.70
2022-10-22T03:01:40.746Z,30.10
2022-10-22T03:04:09.752Z,29.70
2022-10-22T03:06:39.721Z,28.20
2022-10-22T03:09:08.492Z,27.60
2022-10-22T03:11:37.443Z,30.00
2022-10-22T03:14:05.781Z,31.20
2022-10-22T03:16:34.267Z,33.00
2022-10-22T03:19:02.686Z,28.60
2022-10-22T03:21:51.392Z,33.20
2022-10-22T03:24:26.636Z,30.80
2022-10-22T03:26:55.695Z,27.60
2022-10-22T03:29:27.224Z,36.50
2022-10-22T03:31:55.692Z,40.90
2022-10-22T03:34:24.199Z,35.40
2022-10-22T03:36:53.856Z,36.60
2022-10-22T03:39:22.180Z,41.80
2022-10-22T03:41:52.557Z,39.30
2022-10-22T03:44:23.910Z,40.30
2022-10-22T03:46:52.735Z,39.50
2022-10-22T03:49:22.205Z,48.20
2022-10-22T03:51:50.468Z,45.40
2022-10-22T03:54:18.741Z,33.90
2022-10-22T03:56:47.030Z,43.20
2022-10-22T03:59:15.615Z,41.90
2022-10-22T04:01:43.661Z,36.50
2022-10-22T04:04:11.711Z,42.00
2022-10-22T04:06:40.066Z,39.50
2022-10-22T04:09:08.681Z,48.90
2022-10-22T04:11:36.998Z,39.80
2022-10-22T04:14:05.273Z,47.30
2022-10-22T04:16:33.744Z,50.50
2022-10-22T04:19:01.911Z,41.50
2022-10-22T04:21:30.259Z,38.40
2022-10-22T04:23:58.819Z,51.40
2022-10-22T04:26:27.810Z,43.40
2022-10-22T04:28:56.494Z,45.70
2022-10-22T04:31:26.134Z,44.10
2022-10-22T04:33:56.140Z,40.40
2022-10-22T04:36:25.777Z,40.00
2022-10-22T04:38:57.281Z,40.70
2022-10-22T04:41:31.123Z,40.70
2022-10-22T04:43:59.666Z,36.90
2022-10-22T04:46:30.146Z,36.30
2022-10-22T04:48:59.051Z,38.00
2022-10-22T04:51:28.063Z,47.50
2022-10-22T04:53:56.386Z,24.80
2022-10-22T04:56:28.096Z,34.80
2022-10-22T04:59:01.660Z,27.20
2022-10-22T05:01:40.017Z,44.20
2022-10-22T05:04:14.978Z,37.20
2022-10-22T05:06:44.133Z,32.10
2022-10-22T05:09:18.553Z,35.80
2022-10-22T05:11:50.354Z,40.90
2022-10-22T05:14:22.386Z,36.70
2022-10-22T05:16:52.564Z,42.20
2022-10-22T05:19:24.731Z,42.80
2022-10-22T05:21:55.069Z,39.90
2022-10-22T05:24:24.507Z,45.50
2022-10-22T05:26:54.535Z,40.30
2022-10-22T05:29:24.028Z,47.20
2022-10-22T05:31:53.531Z,48.50
2022-10-22T05:34:22.076Z,42.10
2022-10-22T05:36:51.014Z,45.50
2022-10-22T05:39:19.650Z,45.90
2022-10-22T05:41:47.865Z,34.40
2022-10-22T05:44:16.156Z,39.30
2022-10-22T05:46:44.456Z,35.60
2022-10-22T05:49:15.512Z,42.20
2022-10-22T05:51:43.861Z,39.70
2022-10-22T05:54:17.655Z,41.70
2022-10-22T05:56:46.578Z,43.50
2022-10-22T05:59:14.827Z,57.30
2022-10-22T06:01:43.022Z,47.40
2022-10-22T06:04:13.363Z,47.20
2022-10-22T06:06:50.639Z,46.00
2022-10-22T06:09:32.529Z,44.30
2022-10-22T06:12:01.843Z,45.70
2022-10-22T06:14:32.911Z,40.50
2022-10-22T06:17:01.229Z,51.60
2022-10-22T06:19:31.532Z,43.10
2022-10-22T06:21:59.873Z,36.20
2022-10-22T06:24:28.026Z,37.60
2022-10-22T06:26:56.060Z,38.20
2022-10-22T06:29:24.377Z,37.00
2022-10-22T06:31:52.363Z,37.10
2022-10-22T06:34:20.771Z,40.20
2022-10-22T06:36:49.181Z,37.10
2022-10-22T06:39:17.886Z,38.60
2022-10-22T06:41:47.162Z,32.50
2022-10-22T06:44:20.394Z,31.40
2022-10-22T06:46:52.484Z,27.40
2022-10-22T06:49:21.913Z,28.70
2022-10-22T06:51:52.408Z,37.50
2022-10-22T06:54:23.089Z,42.50
2022-10-22T06:56:51.724Z,37.50
2022-10-22T06:59:20.177Z,27.00
2022-10-22T07:01:48.402Z,24.70
2022-10-22T07:04:17.008Z,26.00
2022-10-22T07:06:45.269Z,29.70
2022-10-22T07:09:13.405Z,19.00
2022-10-22T07:11:45.261Z,20.30
2022-10-22T07:14:14.893Z,21.70
2022-10-22T07:16:43.609Z,20.50
2022-10-22T07:19:13.217Z,27.10
2022-10-22T07:21:41.560Z,26.90
2022-10-22T07:24:09.548Z,25.30
2022-10-22T07:26:37.707Z,25.00
2022-10-22T07:29:06.601Z,29.20
2022-10-22T07:31:34.962Z,22.90
2022-10-22T07:34:03.320Z,27.50
2022-10-22T07:36:32.056Z,41.30
2022-10-22T07:39:01.775Z,24.90
2022-10-22T07:41:30.837Z,27.00
2022-10-22T07:43:59.856Z,26.00
2022-10-22T07:46:28.350Z,30.90
2022-10-22T07:48:56.632Z,26.30
2022-10-22T07:51:26.310Z,26.70
2022-10-22T07:53:54.736Z,29.60
2022-10-22T07:56:23.280Z,34.60
2022-10-22T07:58:51.351Z,28.80
2022-10-22T08:01:20.885Z,28.60
2022-10-22T08:03:49.493Z,37.10
2022-10-22T08:06:17.925Z,32.20
2022-10-22T08:08:46.787Z,30.20
2022-10-22T08:11:15.289Z,26.60
2022-10-22T08:13:45.686Z,33.80
2022-10-22T08:16:15.075Z,29.00
2022-10-22T08:18:43.086Z,31.30
2022-10-22T08:21:14.408Z,29.80
2022-10-22T08:23:42.311Z,35.10
2022-10-22T08:26:11.547Z,33.50
2022-10-22T08:28:39.651Z,35.30
2022-10-22T08:31:08.429Z,38.80
2022-10-22T08:33:39.028Z,41.10
2022-10-22T08:36:07.955Z,38.00
2022-10-22T08:38:36.549Z,40.50
2022-10-22T08:41:17.780Z,39.20
2022-10-22T08:43:48.867Z,31.00
2022-10-22T08:46:43.329Z,35.60
2022-10-22T08:49:23.145Z,34.50
2022-10-22T08:51:52.129Z,38.20
2022-10-22T08:54:29.287Z,40.10
2022-10-22T08:57:03.811Z,33.40
2022-10-22T08:59:43.533Z,32.80
2022-10-22T09:02:38.951Z,31.80
2022-10-22T09:05:26.148Z,30.30
2022-10-22T09:07:56.037Z,30.00
2022-10-22T09:10:33.464Z,43.20
2022-10-22T09:13:02.141Z,28.50
2022-10-22T09:15:31.765Z,28.10
2022-10-22T09:18:00.050Z,41.30
2022-10-22T09:20:32.851Z,36.30
2022-10-22T09:23:19.974Z,28.50
2022-10-22T09:25:51.487Z,36.30
2022-10-22T09:28:20.434Z,34.80
2022-10-22T09:30:48.983Z,31.70
2022-10-22T09:33:24.734Z,24.90
2022-10-22T09:36:03.821Z,36.60
2022-10-22T09:38:45.315Z,24.00
2022-10-22T09:41:15.030Z,31.30
2022-10-22T09:43:43.468Z,28.30
2022-10-22T09:46:19.163Z,48.10
2022-10-22T09:48:58.192Z,26.90
2022-10-22T09:51:40.643Z,31.70
2022-10-22T09:54:40.289Z,32.70
2022-10-22T09:57:17.871Z,39.30
2022-10-22T09:59:50.563Z,27.20
2022-10-22T10:02:38.393Z,27.00
2022-10-22T10:05:08.339Z,25.20
2022-10-22T10:07:36.948Z,28.40
2022-10-22T10:10:19.940Z,29.50
2022-10-22T10:12:48.371Z,25.20
2022-10-22T10:15:34.254Z,27.30
2022-10-22T10:18:14.857Z,26.10
2022-10-22T10:21:01.918Z,21.40
2022-10-22T10:23:33.382Z,20.90
2022-10-22T10:26:14.814Z,28.90
2022-10-22T10:29:06.235Z,30.20
2022-10-22T10:32:03.653Z,26.60
2022-10-22T10:34:49.268Z,25.70
2022-10-22T10:37:31.271Z,34.20
2022-10-22T10:40:14.838Z,26.20
2022-10-22T10:42:55.998Z,27.10
2022-10-22T10:45:54.857Z,20.70
2022-10-22T10:49:02.949Z,21.20
2022-10-22T10:52:08.550Z,26.30
2022-10-22T10:55:19.026Z,26.50
2022-10-22T10:58:01.182Z,23.30
2022-10-22T11:00:35.604Z,22.60
2022-10-22T11:03:17.437Z,30.60
2022-10-22T11:06:09.516Z,22.30
2022-10-22T11:08:43.744Z,19.90
2022-10-22T11:11:19.671Z,20.70
2022-10-22T11:14:20.429Z,25.30
2022-10-22T11:16:59.334Z,24.30
2022-10-22T11:19:59.814Z,21.30
2022-10-22T11:23:17.505Z,28.20
2022-10-22T11:25:49.026Z,24.20
2022-10-22T11:28:37.706Z,21.30
2022-10-22T11:31:16.988Z,17.10
2022-10-22T11:34:32.841Z,26.10
2022-10-22T11:37:01.250Z,24.90
2022-10-22T11:39:34.696Z,23.50
2022-10-22T11:42:06.468Z,23.20
2022-10-22T11:44:50.012Z,20.30
2022-10-22T11:47:24.800Z,24.10
2022-10-22T11:50:18.420Z,27.20
2022-10-22T11:53:08.763Z,23.60
2022-10-22T11:55:52.871Z,22.20
2022-10-22T11:58:50.847Z,23.30
2022-10-22T12:01:26.055Z,25.50
2022-10-22T12:04:14.434Z,20.00
2022-10-22T12:07:31.577Z,22.60
2022-10-22T12:10:00.558Z,27.60
2022-10-22T12:12:40.035Z,21.10
2022-10-22T12:15:29.282Z,24.10
2022-10-22T12:18:04.724Z,25.90
2022-10-22T12:20:33.314Z,24.80
2022-10-22T12:23:01.957Z,25.80
2022-10-22T12:25:35.774Z,21.60
2022-10-22T12:28:04.625Z,20.30
2022-10-22T12:30:35.267Z,23.70
2022-10-22T12:33:08.053Z,22.90
2022-10-22T12:35:44.347Z,21.50
2022-10-22T12:38:20.386Z,26.60
2022-10-22T12:40:50.354Z,23.70
2022-10-22T12:43:24.222Z,31.50
2022-10-22T12:45:53.740Z,25.50
2022-10-22T12:48:29.934Z,22.40
2022-10-22T12:51:01.393Z,19.20
2022-10-22T12:53:31.178Z,23.00
2022-10-22T12:56:06.307Z,21.40
2022-10-22T12:58:39.643Z,23.90
2022-10-22T13:01:10.762Z,28.40
2022-10-22T13:03:49.970Z,23.50
2022-10-22T13:06:21.810Z,25.50
2022-10-22T13:09:08.599Z,33.30
2022-10-22T13:11:48.669Z,31.40
2022-10-22T13:14:30.211Z,28.90
2022-10-22T13:17:16.888Z,31.40
2022-10-22T13:19:48.260Z,25.60
2022-10-22T13:22:31.112Z,27.80
2022-10-22T13:25:32.015Z,23.60
2022-10-22T13:28:13.191Z,29.10
2022-10-22T13:30:56.279Z,30.20
2022-10-22T13:33:29.550Z,26.60
2022-10-22T13:35:57.795Z,27.30
2022-10-22T13:38:28.246Z,31.70
2022-10-22T13:40:57.740Z,31.20
2022-10-22T13:43:26.843Z,24.30
2022-10-22T13:45:59.020Z,24.80
2022-10-22T13:48:30.253Z,31.90
2022-10-22T13:50:58.546Z,32.70
2022-10-22T13:53:29.189Z,40.90
2022-10-22T13:55:58.441Z,34.60
2022-10-22T13:58:26.778Z,36.30
2022-10-22T14:00:59.217Z,30.30
2022-10-22T14:03:34.453Z,33.40
2022-10-22T14:06:02.958Z,34.50
2022-10-22T14:08:32.113Z,34.50
2022-10-22T14:11:00.465Z,33.50
2022-10-22T14:13:28.723Z,36.40
2022-10-22T14:15:56.975Z,42.60
2022-10-22T14:18:31.749Z,34.80
2022-10-22T14:21:05.345Z,33.90
2022-10-22T14:23:36.621Z,37.00
2022-10-22T14:26:05.097Z,33.10
2022-10-22T14:28:41.270Z,32.00
2022-10-22T14:31:15.448Z,26.70
2022-10-22T14:33:43.637Z,29.20
2022-10-22T14:36:15.182Z,24.10
2022-10-22T14:38:44.892Z,26.40
2022-10-22T14:41:25.172Z,34.40
2022-10-22T14:43:55.050Z,28.60
2022-10-22T14:46:23.271Z,26.00
2022-10-22T14:48:51.612Z,31.20
2022-10-22T14:51:23.565Z,33.20
2022-10-22T14:53:52.372Z,33.70
2022-10-22T14:56:23.513Z,37.70
2022-10-22T14:58:52.424Z,35.40
2022-10-22T15:01:21.165Z,36.90
2022-10-22T15:03:49.434Z,36.30
2022-10-22T15:06:17.949Z,38.50
2022-10-22T15:08:46.450Z,31.60
2022-10-22T15:11:14.806Z,33.70
2022-10-22T15:13:43.770Z,34.00
2022-10-22T15:16:15.059Z,36.40
2022-10-22T15:18:43.380Z,36.80
2022-10-22T15:21:18.022Z,30.60
2022-10-22T15:23:46.345Z,42.10
2022-10-22T15:26:15.229Z,34.70
2022-10-22T15:28:44.481Z,42.70
2022-10-22T15:31:14.559Z,46.00
2022-10-22T15:33:43.862Z,38.30
2022-10-22T15:36:14.812Z,49.20
2022-10-22T15:38:43.803Z,32.40
2022-10-22T15:41:13.737Z,43.20
2022-10-22T15:43:42.224Z,42.80
2022-10-22T15:46:15.343Z,34.10
2022-10-22T15:48:43.934Z,42.10
2022-10-22T15:51:17.346Z,44.20
2022-10-22T15:53:57.589Z,46.40
2022-10-22T15:56:28.302Z,38.40
2022-10-22T15:58:58.965Z,38.50
2022-10-22T16:01:28.465Z,43.90
2022-10-22T16:04:03.020Z,43.30
2022-10-22T16:06:36.492Z,39.80
2022-10-22T16:09:08.813Z,40.60
2022-10-22T16:11:38.393Z,41.40
2022-10-22T16:14:07.929Z,45.40
2022-10-22T16:16:39.589Z,40.50
2022-10-22T16:19:08.151Z,41.90
2022-10-22T16:21:36.553Z,38.10
2022-10-22T16:24:06.621Z,53.30
2022-10-22T16:26:36.013Z,53.00
2022-10-22T16:29:05.790Z,49.70
2022-10-22T16:31:34.537Z,54.40
2022-10-22T16:34:03.117Z,42.80
2022-10-22T16:36:31.511Z,51.40
2022-10-22T16:39:00.327Z,52.70
2022-10-22T16:41:35.549Z,51.60
2022-10-22T16:46:36.968Z,49.90
2022-10-22T16:49:06.665Z,51.90
2022-10-22T16:51:35.621Z,43.30
2022-10-22T16:54:06.807Z,55.00
2022-10-22T16:56:37.880Z,52.50
2022-10-22T16:59:06.797Z,60.40
2022-10-22T17:01:40.346Z,64.00
2022-10-22T17:04:10.136Z,58.70
2022-10-22T17:06:38.439Z,60.40
2022-10-22T17:09:06.689Z,59.20
2022-10-22T17:11:37.088Z,62.30
2022-10-22T17:14:07.975Z,63.70
2022-10-22T17:16:36.473Z,68.40
2022-10-22T17:19:04.700Z,75.40
2022-10-22T17:21:34.223Z,82.30
2022-10-22T17:24:02.692Z,87.40
2022-10-22T17:26:33.546Z,93.00
2022-10-22T17:29:01.922Z,96.70
2022-10-22T17:31:33.373Z,90.90
2022-10-22T17:34:02.049Z,87.40
2022-10-22T17:36:34.849Z,74.40
2022-10-22T17:39:07.789Z,78.60
2022-10-22T17:41:37.862Z,76.70
2022-10-22T17:44:09.355Z,70.00
2022-10-22T17:46:38.607Z,77.50
2022-10-22T17:49:17.590Z,76.20
2022-10-22T17:51:46.390Z,80.40
2022-10-22T17:54:14.759Z,82.00
2022-10-22T17:56:43.129Z,88.90
2022-10-22T17:59:14.212Z,83.00
2022-10-22T18:01:48.004Z,93.60
2022-10-22T18:04:18.889Z,96.10
2022-10-22T18:06:48.580Z,84.90
2022-10-22T18:09:19.206Z,78.00
2022-10-22T18:11:50.213Z,82.70
2022-10-22T18:14:20.591Z,79.20
2022-10-22T18:16:49.610Z,85.70
2022-10-22T18:19:22.362Z,73.90
2022-10-22T18:21:50.920Z,84.10
2022-10-22T18:24:18.970Z,77.40
2022-10-22T18:26:47.092Z,67.40
2022-10-22T18:29:18.345Z,72.60
2022-10-22T18:31:48.035Z,68.10
2022-10-22T18:34:19.013Z,77.70
2022-10-22T18:36:49.800Z,73.20
2022-10-22T18:39:18.227Z,82.00
2022-10-22T18:41:46.537Z,72.00
2022-10-22T18:44:15.973Z,86.50
2022-10-22T18:46:44.292Z,67.10
2022-10-22T18:49:18.194Z,73.80
2022-10-22T18:51:52.731Z,79.70
2022-10-22T18:54:23.800Z,67.20
2022-10-22T18:56:56.323Z,71.80
2022-10-22T18:59:27.474Z,76.10
2022-10-22T19:02:00.144Z,83.50
2022-10-22T19:04:33.728Z,59.90
2022-10-22T19:07:01.831Z,65.50
2022-10-22T19:09:30.647Z,72.00
2022-10-22T19:11:59.836Z,76.40
2022-10-22T19:14:27.935Z,73.10
2022-10-22T19:16:56.286Z,83.20
2022-10-22T19:19:24.633Z,65.40
2022-10-22T19:21:52.810Z,65.30
2022-10-22T19:24:21.234Z,71.10
2022-10-22T19:26:50.426Z,72.90
2022-10-22T19:29:20.639Z,66.80
2022-10-22T19:31:51.283Z,59.40
2022-10-22T19:34:20.639Z,51.60
2022-10-22T19:36:51.899Z,55.10
2022-10-22T19:39:20.428Z,57.60
2022-10-22T19:41:49.208Z,63.40
2022-10-22T19:44:17.625Z,64.20
2022-10-22T19:46:45.807Z,65.70
2022-10-22T19:49:17.653Z,62.80
2022-10-22T19:51:49.237Z,59.30
2022-10-22T19:54:20.851Z,58.80
2022-10-22T19:56:50.056Z,56.10
2022-10-22T19:59:22.827Z,59.40
2022-10-22T20:01:51.101Z,53.80
2022-10-22T20:04:19.587Z,52.20
2022-10-22T20:06:47.810Z,54.20
2022-10-22T20:09:16.067Z,47.00
2022-10-22T20:11:44.667Z,52.00
2022-10-22T20:14:13.970Z,48.10
2022-10-22T20:16:42.612Z,52.50
2022-10-22T20:19:10.956Z,59.50
2022-10-22T20:21:39.633Z,57.50
2022-10-22T20:24:08.087Z,53.60
2022-10-22T20:26:36.226Z,59.10
2022-10-22T20:29:04.495Z,51.80
2022-10-22T20:31:33.445Z,55.50
2022-10-22T20:34:02.994Z,60.40
2022-10-22T20:36:32.495Z,59.30
2022-10-22T20:39:06.439Z,61.50
2022-10-22T20:41:38.362Z,55.70
2022-10-22T20:44:17.279Z,48.50
2022-10-22T20:46:45.997Z,54.50
2022-10-22T20:49:17.017Z,53.60
2022-10-22T20:51:45.402Z,56.50
2022-10-22T20:54:15.287Z,52.60
2022-10-22T20:56:44.262Z,52.90
2022-10-22T20:59:12.951Z,49.70
2022-10-22T21:01:46.686Z,48.30
2022-10-22T21:04:17.200Z,61.70
2022-10-22T21:06:45.948Z,55.50
2022-10-22T21:09:14.890Z,64.40
2022-10-22T21:11:43.923Z,62.90
2022-10-22T21:14:14.296Z,59.60
2022-10-22T21:16:51.476Z,56.20
2022-10-22T21:19:20.522Z,51.50
2022-10-22T21:21:49.723Z,56.80
2022-10-22T21:24:18.313Z,64.80
2022-10-22T21:26:46.628Z,64.00
2022-10-22T21:29:14.527Z,56.80
2022-10-22T21:31:43.468Z,59.20
2022-10-22T21:34:13.501Z,56.30
2022-10-22T21:36:42.681Z,59.90
2022-10-22T21:39:12.393Z,58.90
2022-10-22T21:41:41.169Z,53.20
2022-10-22T21:44:09.702Z,61.10
2022-10-22T21:46:38.119Z,54.40
2022-10-22T21:49:06.140Z,63.50
2022-10-22T21:51:35.947Z,68.70
2022-10-22T21:54:04.944Z,57.40
2022-10-22T21:56:35.771Z,65.90
2022-10-22T21:59:05.133Z,66.80
2022-10-22T22:01:33.485Z,67.40
2022-10-22T22:04:01.713Z,73.40
2022-10-22T22:06:33.507Z,57.20
2022-10-22T22:09:03.730Z,57.80
2022-10-22T22:11:32.792Z,60.10
2022-10-22T22:14:00.838Z,67.30
2022-10-22T22:16:32.483Z,51.60
2022-10-22T22:21:42.083Z,59.40
2022-10-22T22:24:13.004Z,58.50
2022-10-22T22:26:41.263Z,61.50
2022-10-22T22:29:10.555Z,50.60
2022-10-22T22:31:38.776Z,51.60
2022-10-22T22:34:11.274Z,53.00
2022-10-22T22:36:41.733Z,49.70
2022-10-22T22:39:18.917Z,53.80
2022-10-22T22:41:48.251Z,49.00
2022-10-22T22:44:17.373Z,50.40
2022-10-22T22:46:45.629Z,51.70
2022-10-22T22:49:14.416Z,50.00
2022-10-22T22:51:43.832Z,55.90
2022-10-22T22:54:11.917Z,53.70
2022-10-22T22:56:40.013Z,50.90
2022-10-22T22:59:08.209Z,59.40
2022-10-22T23:01:38.732Z,52.30
2022-10-22T23:04:08.289Z,52.70
2022-10-22T23:06:37.899Z,52.80
2022-10-22T23:09:09.571Z,51.70
2022-10-22T23:11:38.720Z,48.20
2022-10-22T23:14:08.648Z,47.20
2022-10-22T23:16:39.830Z,43.60
2022-10-22T23:19:08.082Z,46.60
2022-10-22T23:21:39.544Z,46.30
2022-10-22T23:24:11.903Z,45.80
2022-10-22T23:26:43.292Z,47.20
2022-10-22T23:29:14.998Z,40.90
2022-10-22T23:31:44.294Z,43.50
2022-10-22T23:34:16.487Z,39.20
2022-10-22T23:36:44.710Z,47.70
2022-10-22T23:39:19.255Z,46.20
2022-10-22T23:41:47.798Z,49.70
2022-10-22T23:44:16.209Z,41.50
2022-10-22T23:46:44.674Z,42.00
2022-10-22T23:49:13.584Z,36.00
2022-10-22T23:51:42.275Z,37.50
2022-10-22T23:54:18.301Z,37.90
2022-10-22T23:56:47.401Z,35.00
2022-10-22T23:59:15.980Z,31.80
